CheckWX is a tool to help pilots better visualize weather data.  It is not intended as a substitute for an official pre-flight weather briefing.

13:27:30 UTC

82C METAR
Mauston-New Lisbon Union Airport
New Lisbon, Wisconsin, USA
Current

13 mins ago

K82C 231315Z AUTO 00000KT 2SM -SN SCT004 BKN023 OVC040 M02/M02 A2999 RMK AO2 T10201024
Observed
Jan-23 @ 13:15 UTC
Visibility
2 SM
Flight Rules
IFR
Conditions
Light Snow
Cloud Levels
  • Scattered at 400' AGL
  • Broken at 2,300' AGL
  • Overcast at 4,000' AGL
Temperature
-2°C / 28°F
Dewpoint
-2°C / 28°F
Humidity
100%
Altimeter
29.99" Hg
Pressure
1015.62 hPa
Previous

33 mins ago

K82C 231255Z AUTO 00000KT 1 3/4SM -SN SCT013 BKN019 OVC028 M02/M02 A2999 RMK AO2 T10201025
Observed
Jan-23 @ 12:55 UTC
Visibility
1 3/4 SM
Flight Rules
IFR
Conditions
Light Snow
Cloud Levels
  • Scattered at 1,300' AGL
  • Broken at 1,900' AGL
  • Overcast at 2,800' AGL
Temperature
-2°C / 28°F
Dewpoint
-3°C / 27°F
Humidity
93%
Altimeter
29.99" Hg
Pressure
1015.62 hPa
Previous

53 mins ago

K82C 231235Z AUTO 00000KT 1 1/4SM -SN BKN013 OVC019 M02/M02 A2999 RMK AO2 T10201024
Observed
Jan-23 @ 12:35 UTC
Visibility
1 1/4 SM
Flight Rules
IFR
Conditions
Light Snow
Cloud Levels
  • Broken at 1,300' AGL
  • Overcast at 1,900' AGL
Temperature
-2°C / 28°F
Dewpoint
-2°C / 28°F
Humidity
100%
Altimeter
29.99" Hg
Pressure
1015.62 hPa